Welcome to this demonstration website - Welkom op de demo website - Bienvenue sur ce site de démonstration - Willkommen auf dieser Demonstration Website


my webcam  My webcam


thunder radar more information blitzortung!


rain radar more information rain snow radar


visit our other weather sites:

Template documentation
and downloads

And another site



nearby metar reports

   
EBAW - Antwerp
updated: 21-11-2017 10:50
light rain, drizzle, mostly cloudy  
light rain, drizzle, mostly cloudy  
   wind: wsw 22.2 km/h
wind: wsw 22.2 km/h
temperature: 12°C
dew point: 10°C
humidity: 88%
barometer: 1013 hPa
clouds: Mostly Cloudy
visibility: 4 km
cloud details: few clouds 121.9 m,
mostly cloudy 182.9 m
EBAW 210950Z 24012KT 4200 -RADZ FEW004 BKN006 12/10 Q1013 BECMG 6000 NSW SCT006 BKN012
EBLG - Liège
updated: 21-11-2017 10:50
light rain, drizzle, mist, mostly cloudy  
light rain, drizzle, mist, mostly cloudy  
   wind: sw 27.8 km/h
wind: sw 27.8 km/h
temperature: 9°C
wind chill: 6°C
dew point: 8°C
humidity: 94%
barometer: 1014 hPa
clouds: Mostly Cloudy
visibility: 5 km
cloud details: partly cloudy 152.4 m,
mostly cloudy 182.9 m
EBLG 210950Z 23015KT 4500 -RADZ BR SCT005 BKN006 09/08 Q1014 TEMPO 2500 -RADZ BR BKN003
EBCV - Mons/Bergen
updated: 21-11-2017 10:55
overcast  
overcast  
   wind: sw 22.2 km/h
wind: sw 22.2 km/h
temperature: 10°C
wind chill: 7°C
dew point: 9°C
humidity: 94%
barometer: 1015 hPa
clouds: Overcast
visibility: More than 10 km
cloud details: overcast 335.3 m
EBCV 210955Z AUTO 22012KT 9999 OVC011/// 10/09 Q1015 GRN
EHBK - Maastricht
updated: 21-11-2017 10:55
overcast  
overcast  
   wind: sw 31.5 km/h
wind: sw 31.5 km/h
temperature: 10°C
wind chill: 7°C
dew point: 10°C
humidity: 100%
barometer: 1013 hPa
clouds: Overcast
visibility: 8 km
cloud details: partly cloudy 152.4 m,
overcast 213.4 m
EHBK 210955Z AUTO 23017KT 8000 SCT005/// OVC007/// 10/10 Q1013 REDZ TEMPO 6000 DZRA BKN004
ELLX - Luxemburg
updated: 21-11-2017 10:50
mist, light drizzle, mostly cloudy  
mist, light drizzle, mostly cloudy  
   wind: wsw 29.6 km/h
wind: wsw 29.6 km/h
temperature: 7°C
wind chill: 3°C
dew point: 7°C
humidity: 100%
barometer: 1016 hPa
clouds: Mostly Cloudy
visibility: 2 km
cloud details: few clouds 30.5 m,
mostly cloudy 91.4 m
ELLX 210950Z 25016KT 2000 BR -DZ FEW001 BKN003 07/07 Q1016 BECMG 5000
EBOS - Oostende
updated: 21-11-2017 10:50
mostly cloudy  
mostly cloudy  
   wind: sw 24.1 km/h
wind: sw 24.1 km/h
temperature: 13°C
dew point: 10°C
humidity: 82%
barometer: 1013 hPa
clouds: Mostly Cloudy
visibility: More than 10 km
cloud details: mostly cloudy 365.8 m
EBOS 210950Z 23013KT 9999 BKN012 13/10 Q1013 TEMPO 25017G27KT BKN011

script developed by  Saratoga-weather.org adapted for the template by  Weerstation Leuven

you find our weather info also at:

Het Weer Aktueel

UK Metoffice

European Weather Network

WeatherCloud

Weather Underground

benelux weather network

AWEKAS

WeatherlinkIP

Citizen Weather Observer Program (CWOP)

HAMweather, WeatherForYou, PWS Weather

equipment we use:

weather-station
Davis VP2+
Meteostick connected

weather-program
Meteobridge

weather-server
MeteobridgePro

Davis VP2+<br />Meteostick connected

Meteobridge

MeteobridgePro